createdAt,value
2022-07-29T00:00:05.737Z,98698.59
2022-07-29T00:02:33.782Z,98702.22
2022-07-29T00:05:00.947Z,98699.25
2022-07-29T00:07:28.162Z,98686.03
2022-07-29T00:09:55.357Z,98680.91
2022-07-29T00:12:26.298Z,98676.97
2022-07-29T00:14:58.045Z,98675.75
2022-07-29T00:17:26.114Z,98689.91
2022-07-29T00:19:53.549Z,98689.75
2022-07-29T00:22:21.498Z,98688.19
2022-07-29T00:24:50.398Z,98689.72
2022-07-29T00:27:18.921Z,98692.19
2022-07-29T00:29:46.203Z,98681.97
2022-07-29T00:32:13.581Z,98684.16
2022-07-29T00:34:59.323Z,98681.66
2022-07-29T00:37:26.835Z,98677.47
2022-07-29T00:39:53.982Z,98674.53
2022-07-29T00:42:21.268Z,98673.75
2022-07-29T00:44:48.729Z,98675.91
2022-07-29T00:47:16.055Z,98670.25
2022-07-29T00:49:44.048Z,98672.44
2022-07-29T00:52:12.496Z,98659.72
2022-07-29T00:54:44.638Z,98654.59
2022-07-29T00:57:13.190Z,98658.28
2022-07-29T00:59:40.537Z,98661.53
2022-07-29T01:02:07.933Z,98660.91
2022-07-29T01:04:35.650Z,98670.06
2022-07-29T01:07:04.404Z,98660.28
2022-07-29T01:09:35.079Z,98656.94
2022-07-29T01:12:18.863Z,98653.97
2022-07-29T01:14:51.125Z,98651.25
2022-07-29T01:17:29.229Z,98645.81
2022-07-29T01:20:32.212Z,98646.53
2022-07-29T01:23:08.573Z,98636.25
2022-07-29T01:26:10.825Z,98636.00
2022-07-29T01:29:07.556Z,98632.59
2022-07-29T01:31:59.041Z,98627.94
2022-07-29T01:35:10.372Z,98625.50
2022-07-29T01:38:12.719Z,98632.09
2022-07-29T01:40:44.413Z,98621.94
2022-07-29T01:43:15.822Z,98621.09
2022-07-29T01:45:59.212Z,98618.88
2022-07-29T01:48:35.490Z,98614.53
2022-07-29T01:51:30.562Z,98608.69
2022-07-29T01:54:19.677Z,98604.78
2022-07-29T01:56:50.433Z,98599.88
2022-07-29T01:59:19.223Z,98598.38
2022-07-29T02:01:48.528Z,98597.88
2022-07-29T02:04:29.192Z,98588.56
2022-07-29T02:07:02.136Z,98586.38
2022-07-29T02:09:31.023Z,98586.91
2022-07-29T02:12:00.058Z,98597.66
2022-07-29T02:14:29.926Z,98586.66
2022-07-29T02:16:59.750Z,98580.13
2022-07-29T02:19:28.823Z,98589.13
2022-07-29T02:21:59.204Z,98581.53
2022-07-29T02:24:27.860Z,98583.19
2022-07-29T02:26:57.867Z,98578.03
2022-07-29T02:29:27.672Z,98582.00
2022-07-29T02:31:55.844Z,98579.78
2022-07-29T02:34:23.857Z,98577.09
2022-07-29T02:36:52.059Z,98579.31
2022-07-29T02:39:20.423Z,98576.81
2022-07-29T02:41:53.068Z,98560.72
2022-07-29T02:44:22.727Z,98575.91
2022-07-29T02:47:02.381Z,98563.63
2022-07-29T02:50:04.982Z,98564.88
2022-07-29T02:53:00.198Z,98562.00
2022-07-29T02:55:46.260Z,98574.44
2022-07-29T02:58:20.897Z,98570.34
2022-07-29T03:00:50.394Z,98560.59
2022-07-29T03:03:19.668Z,98565.97
2022-07-29T03:05:47.230Z,98559.63
2022-07-29T03:08:16.175Z,98564.03
2022-07-29T03:10:47.005Z,98571.88
2022-07-29T03:13:15.110Z,98558.03
2022-07-29T03:15:45.123Z,98562.66
2022-07-29T03:18:13.362Z,98556.06
2022-07-29T03:20:40.970Z,98558.47
2022-07-29T03:23:09.754Z,98550.88
2022-07-29T03:25:37.102Z,98545.94
2022-07-29T03:28:04.375Z,98544.91
2022-07-29T03:30:32.194Z,98542.22
2022-07-29T03:32:59.504Z,98546.09
2022-07-29T03:35:26.890Z,98547.28
2022-07-29T03:37:54.005Z,98540.72
2022-07-29T03:40:39.740Z,98544.88
2022-07-29T03:43:10.080Z,98543.50
2022-07-29T03:45:38.674Z,98545.94
2022-07-29T03:48:10.248Z,98547.19
2022-07-29T03:50:37.972Z,98543.50
2022-07-29T03:53:05.457Z,98535.91
2022-07-29T03:55:41.363Z,98543.06
2022-07-29T03:58:09.589Z,98540.13
2022-07-29T04:00:38.993Z,98543.13
2022-07-29T04:03:10.870Z,98545.44
2022-07-29T04:05:39.061Z,98552.84
2022-07-29T04:08:06.764Z,98557.50
2022-07-29T04:10:35.734Z,98553.16
2022-07-29T04:13:03.115Z,98554.59
2022-07-29T04:15:30.994Z,98551.16
2022-07-29T04:17:59.723Z,98555.53
2022-07-29T04:20:27.074Z,98550.59
2022-07-29T04:22:54.587Z,98552.06
2022-07-29T04:25:21.817Z,98544.97
2022-07-29T04:28:07.316Z,98548.59
2022-07-29T04:30:36.041Z,98546.88
2022-07-29T04:33:06.492Z,98554.66
2022-07-29T04:35:38.565Z,98555.84
2022-07-29T04:38:15.832Z,98559.91
2022-07-29T04:40:44.440Z,98552.88
2022-07-29T04:43:12.559Z,98560.16
2022-07-29T04:45:41.400Z,98559.16
2022-07-29T04:48:08.915Z,98558.63
2022-07-29T04:50:36.358Z,98557.38
2022-07-29T04:53:03.462Z,98557.38
2022-07-29T04:55:30.713Z,98566.97
2022-07-29T04:57:58.030Z,98553.41
2022-07-29T05:00:33.225Z,98554.09
2022-07-29T05:03:01.219Z,98554.34
2022-07-29T05:05:28.492Z,98549.63
2022-07-29T05:07:56.576Z,98554.22
2022-07-29T05:10:24.076Z,98549.88
2022-07-29T05:12:51.158Z,98552.31
2022-07-29T05:15:19.010Z,98556.91
2022-07-29T05:17:46.297Z,98557.13
2022-07-29T05:20:13.399Z,98561.84
2022-07-29T05:22:40.530Z,98555.00
2022-07-29T05:25:09.313Z,98561.56
2022-07-29T05:27:38.179Z,98550.53
2022-07-29T05:30:05.881Z,98548.31
2022-07-29T05:32:33.313Z,98551.44
2022-07-29T05:35:00.480Z,98550.19
2022-07-29T05:37:27.642Z,98556.56
2022-07-29T05:39:56.511Z,98552.03
2022-07-29T05:42:26.254Z,98553.09
2022-07-29T05:44:53.949Z,98558.97
2022-07-29T05:47:21.277Z,98555.34
2022-07-29T05:49:48.456Z,98561.69
2022-07-29T05:52:16.137Z,98564.44
2022-07-29T05:54:43.349Z,98552.06
2022-07-29T05:57:17.238Z,98556.00
2022-07-29T05:59:44.383Z,98551.44
2022-07-29T06:02:11.612Z,98555.19
2022-07-29T06:04:39.094Z,98559.13
2022-07-29T06:07:06.791Z,98558.22
2022-07-29T06:09:36.389Z,98563.81
2022-07-29T06:12:04.086Z,98551.66
2022-07-29T06:14:31.389Z,98561.91
2022-07-29T06:16:58.456Z,98556.59
2022-07-29T06:19:25.684Z,98555.59
2022-07-29T06:21:52.866Z,98565.09
2022-07-29T06:24:20.393Z,98561.63
2022-07-29T06:26:47.716Z,98559.66
2022-07-29T06:29:14.904Z,98563.78
2022-07-29T06:31:42.089Z,98565.66
2022-07-29T06:34:09.504Z,98567.59
2022-07-29T06:36:39.739Z,98563.91
2022-07-29T06:39:09.125Z,98566.59
2022-07-29T06:41:36.875Z,98571.22
2022-07-29T06:44:05.957Z,98562.22
2022-07-29T06:46:33.581Z,98571.75
2022-07-29T06:49:02.926Z,98568.84
2022-07-29T06:51:30.397Z,98575.44
2022-07-29T06:54:02.248Z,98571.28
2022-07-29T06:56:39.524Z,98579.59
2022-07-29T06:59:09.395Z,98571.03
2022-07-29T07:01:38.514Z,98574.97
2022-07-29T07:04:06.133Z,98572.22
2022-07-29T07:06:33.573Z,98576.38
2022-07-29T07:09:00.830Z,98567.53
2022-07-29T07:11:28.497Z,98569.47
2022-07-29T07:14:00.674Z,98570.19
2022-07-29T07:16:30.499Z,98572.88
2022-07-29T07:18:57.699Z,98574.78
2022-07-29T07:21:24.865Z,98573.53
2022-07-29T07:23:52.040Z,98570.28
2022-07-29T07:26:19.273Z,98574.88
2022-07-29T07:28:46.554Z,98585.34
2022-07-29T07:31:13.797Z,98589.44
2022-07-29T07:33:40.987Z,98586.19
2022-07-29T07:36:08.238Z,98587.19
2022-07-29T07:38:35.568Z,98585.19
2022-07-29T07:41:02.926Z,98592.06
2022-07-29T07:43:30.123Z,98596.25
2022-07-29T07:45:57.263Z,98588.53
2022-07-29T07:48:24.446Z,98594.91
2022-07-29T07:50:52.006Z,98597.59
2022-07-29T07:53:19.434Z,98605.19
2022-07-29T07:58:37.694Z,98598.13
2022-07-29T08:01:04.916Z,98601.03
2022-07-29T08:03:32.093Z,98605.19
2022-07-29T08:05:59.454Z,98610.00
2022-07-29T08:08:26.616Z,98601.25
2022-07-29T08:10:53.764Z,98602.69
2022-07-29T08:13:22.594Z,98605.34
2022-07-29T08:15:59.018Z,98604.31
2022-07-29T08:18:30.533Z,98611.59
2022-07-29T08:20:58.638Z,98607.69
2022-07-29T08:23:32.970Z,98613.03
2022-07-29T08:26:15.040Z,98611.06
2022-07-29T08:28:49.941Z,98614.16
2022-07-29T08:31:18.018Z,98609.25
2022-07-29T08:33:45.186Z,98614.34
2022-07-29T08:36:14.177Z,98616.72
2022-07-29T08:38:41.544Z,98618.31
2022-07-29T08:41:08.755Z,98620.00
2022-07-29T08:43:38.693Z,98625.34
2022-07-29T08:46:06.233Z,98621.56
2022-07-29T08:48:34.539Z,98621.00
2022-07-29T08:51:04.312Z,98621.66
2022-07-29T08:53:32.263Z,98627.56
2022-07-29T08:56:00.107Z,98623.41
2022-07-29T08:58:31.433Z,98632.84
2022-07-29T09:00:58.912Z,98633.63
2022-07-29T09:03:31.144Z,98636.56
2022-07-29T09:06:00.032Z,98631.88
2022-07-29T09:08:27.689Z,98631.88
2022-07-29T09:10:55.322Z,98633.50
2022-07-29T09:13:23.239Z,98644.88
2022-07-29T09:15:50.362Z,98637.44
2022-07-29T09:18:39.550Z,98633.97
2022-07-29T09:21:30.907Z,98643.19
2022-07-29T09:24:02.682Z,98638.56
2022-07-29T09:26:32.200Z,98631.66
2022-07-29T09:29:00.487Z,98623.53
2022-07-29T09:31:36.469Z,98622.72
2022-07-29T09:34:04.851Z,98628.31
2022-07-29T09:36:32.145Z,98633.13
2022-07-29T09:39:03.830Z,98641.84
2022-07-29T09:41:31.346Z,98639.25
2022-07-29T09:44:00.229Z,98644.91
2022-07-29T09:46:27.551Z,98648.91
2022-07-29T09:49:11.198Z,98649.59
2022-07-29T09:51:38.962Z,98649.19
2022-07-29T09:54:27.159Z,98652.00
2022-07-29T09:56:55.527Z,98654.03
2022-07-29T09:59:27.677Z,98652.94
2022-07-29T10:01:55.522Z,98654.94
2022-07-29T10:04:23.149Z,98658.84
2022-07-29T10:07:05.488Z,98668.06
2022-07-29T10:09:33.915Z,98663.22
2022-07-29T10:12:08.433Z,98670.91
2022-07-29T10:14:35.998Z,98667.78
2022-07-29T10:17:04.899Z,98659.31
2022-07-29T10:19:33.161Z,98666.66
2022-07-29T10:22:01.332Z,98665.66
2022-07-29T10:24:30.565Z,98670.75
2022-07-29T10:26:59.420Z,98658.72
2022-07-29T10:29:27.341Z,98660.53
2022-07-29T10:32:31.833Z,98655.19
2022-07-29T10:34:58.706Z,98655.34
2022-07-29T10:37:45.807Z,98653.75
2022-07-29T10:41:06.662Z,98647.06
2022-07-29T10:43:42.377Z,98660.44
2022-07-29T10:46:10.803Z,98657.19
2022-07-29T10:49:17.560Z,98659.88
2022-07-29T10:51:59.326Z,98658.84
2022-07-29T10:54:48.788Z,98661.75
2022-07-29T10:57:25.633Z,98667.13
2022-07-29T11:00:27.233Z,98666.06
2022-07-29T11:02:57.135Z,98664.22
2022-07-29T11:05:32.061Z,98658.16
2022-07-29T11:08:21.041Z,98662.22
2022-07-29T11:11:15.907Z,98649.97
2022-07-29T11:13:56.962Z,98663.78
2022-07-29T11:16:25.442Z,98654.16
2022-07-29T11:19:14.900Z,98664.50
2022-07-29T11:21:54.710Z,98651.22
2022-07-29T11:24:34.905Z,98655.72
2022-07-29T11:27:13.529Z,98656.97
2022-07-29T11:29:53.480Z,98659.19
2022-07-29T11:32:23.155Z,98657.53
2022-07-29T11:35:17.126Z,98656.72
2022-07-29T11:38:23.763Z,98650.31
2022-07-29T11:41:20.853Z,98661.88
2022-07-29T11:43:50.596Z,98661.19
2022-07-29T11:46:40.086Z,98650.50
2022-07-29T11:49:10.325Z,98650.31
2022-07-29T11:51:48.155Z,98660.34
2022-07-29T11:54:27.568Z,98662.09
2022-07-29T11:56:55.393Z,98659.00
2022-07-29T11:59:22.796Z,98658.38
2022-07-29T12:04:59.799Z,98644.47
2022-07-29T12:07:03.416Z,98651.34
2022-07-29T12:07:35.685Z,98648.81
2022-07-29T12:10:03.688Z,98643.72
2022-07-29T12:12:30.796Z,98643.34
2022-07-29T12:14:57.967Z,98646.94
2022-07-29T12:17:32.848Z,98650.59
2022-07-29T12:20:04.424Z,98646.78
2022-07-29T12:22:42.237Z,98633.53
2022-07-29T12:25:32.321Z,98635.69
2022-07-29T12:28:01.981Z,98642.56
2022-07-29T12:30:51.753Z,98652.63
2022-07-29T12:33:28.813Z,98647.28
2022-07-29T12:36:09.439Z,98638.34
2022-07-29T12:38:42.031Z,98640.81
2022-07-29T12:41:09.213Z,98643.59
2022-07-29T12:43:36.442Z,98649.44
2022-07-29T12:46:15.406Z,98652.16
2022-07-29T12:48:45.194Z,98655.66
2022-07-29T12:51:15.584Z,98649.75
2022-07-29T12:53:43.213Z,98660.91
2022-07-29T12:59:24.365Z,98651.81
2022-07-29T13:01:53.421Z,98656.31
2022-07-29T13:04:32.215Z,98646.56
2022-07-29T13:07:04.577Z,98646.56
2022-07-29T13:09:43.375Z,98648.69
2022-07-29T13:12:12.793Z,98648.81
2022-07-29T13:14:42.650Z,98645.31
2022-07-29T13:17:17.015Z,98651.28
2022-07-29T13:19:51.154Z,98638.25
2022-07-29T13:22:25.561Z,98647.13
2022-07-29T13:24:57.782Z,98635.72
2022-07-29T13:27:26.930Z,98646.03
2022-07-29T13:29:57.775Z,98647.41
2022-07-29T13:32:28.231Z,98637.59
2022-07-29T13:35:05.594Z,98643.66
2022-07-29T13:37:35.392Z,98639.59
2022-07-29T13:40:04.646Z,98638.41
2022-07-29T13:42:33.395Z,98636.78
2022-07-29T13:45:01.159Z,98629.38
2022-07-29T13:47:32.628Z,98630.09
2022-07-29T13:50:05.308Z,98629.00
2022-07-29T13:52:34.874Z,98624.34
2022-07-29T13:55:02.472Z,98627.81
2022-07-29T13:57:30.623Z,98627.53
2022-07-29T13:59:58.168Z,98624.38
2022-07-29T14:02:26.293Z,98624.28
2022-07-29T14:04:55.187Z,98633.31
2022-07-29T14:07:23.405Z,98625.19
2022-07-29T14:09:51.410Z,98629.50
2022-07-29T14:12:18.993Z,98620.56
2022-07-29T14:14:47.286Z,98623.16
2022-07-29T14:17:15.137Z,98622.03
2022-07-29T14:19:42.802Z,98613.91
2022-07-29T14:22:10.728Z,98611.00
2022-07-29T14:24:38.503Z,98618.88
2022-07-29T14:27:09.192Z,98612.03
2022-07-29T14:29:38.180Z,98609.59
2022-07-29T14:32:11.579Z,98605.84
2022-07-29T14:34:39.508Z,98608.09
2022-07-29T14:37:07.885Z,98601.25
2022-07-29T14:39:42.837Z,98608.09
2022-07-29T14:42:12.604Z,98596.25
2022-07-29T14:44:41.376Z,98600.28
2022-07-29T14:47:08.803Z,98598.09
2022-07-29T14:49:36.674Z,98589.81
2022-07-29T14:52:04.269Z,98589.03
2022-07-29T14:54:31.471Z,98595.66
2022-07-29T14:56:58.914Z,98601.69
2022-07-29T14:59:27.426Z,98597.78
2022-07-29T15:01:54.775Z,98594.09
2022-07-29T15:04:22.254Z,98593.59
2022-07-29T15:06:49.684Z,98592.44
2022-07-29T15:09:16.983Z,98590.59
2022-07-29T15:11:44.196Z,98592.25
2022-07-29T15:14:11.522Z,98581.66
2022-07-29T15:16:43.898Z,98583.13
2022-07-29T15:19:13.767Z,98581.28
2022-07-29T15:21:41.637Z,98583.94
2022-07-29T15:24:15.653Z,98586.81
2022-07-29T15:26:43.740Z,98575.34
2022-07-29T15:29:11.045Z,98589.25
2022-07-29T15:31:38.233Z,98576.84
2022-07-29T15:34:06.295Z,98570.25
2022-07-29T15:39:22.317Z,98577.50
2022-07-29T15:41:49.831Z,98563.19
2022-07-29T15:44:16.974Z,98570.19
2022-07-29T15:47:02.854Z,98572.16
2022-07-29T15:49:47.644Z,98563.88
2022-07-29T15:52:19.348Z,98569.78
2022-07-29T15:54:52.766Z,98559.19
2022-07-29T15:57:19.921Z,98561.63
2022-07-29T15:59:47.078Z,98567.03
2022-07-29T16:02:14.171Z,98567.91
2022-07-29T16:04:41.577Z,98558.34
2022-07-29T16:07:08.771Z,98558.88
2022-07-29T16:09:35.917Z,98562.28
2022-07-29T16:12:03.165Z,98562.56
2022-07-29T16:14:37.754Z,98561.28
2022-07-29T16:17:05.039Z,98558.25
2022-07-29T16:19:32.103Z,98566.59
2022-07-29T16:21:59.986Z,98565.75
2022-07-29T16:24:30.130Z,98558.38
2022-07-29T16:26:57.858Z,98562.06
2022-07-29T16:29:25.195Z,98562.44
2022-07-29T16:31:53.506Z,98560.97
2022-07-29T16:34:20.645Z,98556.00
2022-07-29T16:36:48.050Z,98569.75
2022-07-29T16:39:15.279Z,98559.84
2022-07-29T16:41:42.636Z,98559.75
2022-07-29T16:44:09.791Z,98556.59
2022-07-29T16:46:39.618Z,98569.34
2022-07-29T16:49:08.731Z,98561.06
2022-07-29T16:51:35.912Z,98568.38
2022-07-29T16:54:03.232Z,98568.84
2022-07-29T16:56:30.408Z,98565.81
2022-07-29T16:59:00.630Z,98568.16
2022-07-29T17:01:28.039Z,98561.47
2022-07-29T17:04:07.423Z,98561.19
2022-07-29T17:06:39.324Z,98567.75
2022-07-29T17:09:08.224Z,98586.91
2022-07-29T17:11:53.686Z,98553.16
2022-07-29T17:14:26.718Z,98579.97
2022-07-29T17:17:00.469Z,98554.13
2022-07-29T17:19:35.799Z,98555.59
2022-07-29T17:22:18.729Z,98564.03
2022-07-29T17:24:47.650Z,98546.72
2022-07-29T17:27:15.208Z,98547.31
2022-07-29T17:29:42.572Z,98536.81
2022-07-29T17:32:11.188Z,98540.69
2022-07-29T17:34:42.231Z,98543.84
2022-07-29T17:37:11.591Z,98549.13
2022-07-29T17:39:41.514Z,98545.03
2022-07-29T17:42:10.642Z,98553.47
2022-07-29T17:44:38.349Z,98550.00
2022-07-29T17:47:07.938Z,98545.06
2022-07-29T17:49:42.882Z,98553.13
2022-07-29T17:52:10.233Z,98552.84
2022-07-29T17:54:37.345Z,98549.53
2022-07-29T17:57:04.649Z,98549.16
2022-07-29T17:59:31.806Z,98546.25
2022-07-29T18:01:59.016Z,98542.31
2022-07-29T18:04:26.249Z,98545.91
2022-07-29T18:06:53.443Z,98545.53
2022-07-29T18:09:20.529Z,98566.28
2022-07-29T18:11:49.155Z,98558.59
2022-07-29T18:14:17.331Z,98557.47
2022-07-29T18:16:44.560Z,98533.91
2022-07-29T18:19:12.018Z,98538.34
2022-07-29T18:21:51.325Z,98537.44
2022-07-29T18:24:27.967Z,98554.28
2022-07-29T18:26:55.575Z,98542.75
2022-07-29T18:29:22.809Z,98543.22
2022-07-29T18:31:50.501Z,98536.75
2022-07-29T18:34:17.656Z,98547.06
2022-07-29T18:36:46.097Z,98541.50
2022-07-29T18:39:19.677Z,98542.13
2022-07-29T18:41:50.197Z,98544.63
2022-07-29T18:44:21.862Z,98545.97
2022-07-29T18:46:49.938Z,98541.53
2022-07-29T18:49:17.169Z,98546.06
2022-07-29T18:51:44.533Z,98536.75
2022-07-29T18:54:11.707Z,98541.94
2022-07-29T18:56:38.999Z,98542.25
2022-07-29T18:59:06.201Z,98538.09
2022-07-29T19:01:33.634Z,98543.06
2022-07-29T19:04:01.236Z,98539.03
2022-07-29T19:06:28.335Z,98539.03
2022-07-29T19:08:55.521Z,98541.03
2022-07-29T19:11:23.693Z,98547.47
2022-07-29T19:13:50.757Z,98541.91
2022-07-29T19:16:18.837Z,98546.03
2022-07-29T19:18:47.791Z,98546.75
2022-07-29T19:21:15.422Z,98548.72
2022-07-29T19:24:05.203Z,98545.06
2022-07-29T19:26:31.814Z,98547.28
2022-07-29T19:28:58.998Z,98557.84
2022-07-29T19:31:26.233Z,98553.69
2022-07-29T19:33:53.581Z,98561.53
2022-07-29T19:36:21.010Z,98560.53
2022-07-29T19:38:48.144Z,98567.19
2022-07-29T19:41:17.545Z,98557.56
2022-07-29T19:43:49.905Z,98555.25
2022-07-29T19:46:19.661Z,98557.69
2022-07-29T19:48:46.971Z,98554.94
2022-07-29T19:51:14.209Z,98555.75
2022-07-29T19:53:41.532Z,98555.63
2022-07-29T19:56:09.071Z,98560.41
2022-07-29T19:58:36.658Z,98560.25
2022-07-29T20:01:10.318Z,98567.88
2022-07-29T20:03:40.455Z,98569.41
2022-07-29T20:06:08.054Z,98568.97
2022-07-29T20:08:37.142Z,98562.78
2022-07-29T20:11:04.356Z,98571.78
2022-07-29T20:13:33.496Z,98567.16
2022-07-29T20:16:02.353Z,98572.53
2022-07-29T20:18:29.631Z,98575.13
2022-07-29T20:20:57.827Z,98586.31
2022-07-29T20:23:25.056Z,98577.75
2022-07-29T20:25:52.416Z,98579.47
2022-07-29T20:28:21.264Z,98581.22
2022-07-29T20:30:48.539Z,98584.94
2022-07-29T20:33:16.575Z,98580.00
2022-07-29T20:35:44.100Z,98590.47
2022-07-29T20:38:15.018Z,98593.88
2022-07-29T20:40:45.270Z,98598.81
2022-07-29T20:43:12.412Z,98595.91
2022-07-29T20:45:39.883Z,98594.78
2022-07-29T20:48:08.231Z,98600.97
2022-07-29T20:50:36.340Z,98604.72
2022-07-29T20:53:03.699Z,98604.56
2022-07-29T20:55:32.295Z,98602.44
2022-07-29T20:57:59.516Z,98604.44
2022-07-29T21:00:26.708Z,98610.34
2022-07-29T21:02:53.865Z,98606.63
2022-07-29T21:05:21.225Z,98606.88
2022-07-29T21:07:48.417Z,98607.56
2022-07-29T21:10:18.525Z,98610.22
2022-07-29T21:12:48.719Z,98612.88
2022-07-29T21:15:16.896Z,98610.81
2022-07-29T21:17:47.469Z,98608.59
2022-07-29T21:20:17.263Z,98607.06
2022-07-29T21:22:44.755Z,98608.47
2022-07-29T21:25:12.398Z,98598.19
2022-07-29T21:27:57.928Z,98615.97
2022-07-29T21:30:25.068Z,98613.56
2022-07-29T21:32:52.281Z,98607.25
2022-07-29T21:35:35.929Z,98612.63
2022-07-29T21:38:06.628Z,98615.06
2022-07-29T21:40:33.902Z,98614.41
2022-07-29T21:43:01.063Z,98612.75
2022-07-29T21:45:28.232Z,98616.63
2022-07-29T21:47:55.395Z,98608.59
2022-07-29T21:50:22.580Z,98623.25
2022-07-29T21:52:49.739Z,98624.50
2022-07-29T21:55:18.006Z,98619.13
2022-07-29T21:57:46.509Z,98627.38
2022-07-29T22:00:17.007Z,98622.94
2022-07-29T22:02:44.157Z,98631.84
2022-07-29T22:05:14.985Z,98630.28
2022-07-29T22:07:56.298Z,98620.19
2022-07-29T22:10:26.043Z,98619.63
2022-07-29T22:12:54.662Z,98628.19
2022-07-29T22:15:22.202Z,98622.38
2022-07-29T22:17:49.790Z,98622.44
2022-07-29T22:20:17.369Z,98629.84
2022-07-29T22:22:44.863Z,98631.06
2022-07-29T22:25:12.305Z,98631.63
2022-07-29T22:27:40.075Z,98635.97
2022-07-29T22:30:08.111Z,98638.47
2022-07-29T22:32:35.386Z,98640.53
2022-07-29T22:35:02.537Z,98642.03
2022-07-29T22:37:29.709Z,98645.47
2022-07-29T22:39:57.123Z,98646.19
2022-07-29T22:42:24.291Z,98647.16
2022-07-29T22:44:51.644Z,98643.75
2022-07-29T22:47:18.967Z,98650.09
2022-07-29T22:50:06.768Z,98641.53
2022-07-29T22:52:33.872Z,98642.28
2022-07-29T22:55:01.081Z,98643.50
2022-07-29T22:57:29.172Z,98644.72
2022-07-29T22:59:56.399Z,98641.63
2022-07-29T23:02:23.517Z,98643.56
2022-07-29T23:04:50.666Z,98638.94
2022-07-29T23:07:18.015Z,98637.94
2022-07-29T23:09:45.157Z,98633.72
2022-07-29T23:12:12.514Z,98633.44
2022-07-29T23:14:39.926Z,98632.13
2022-07-29T23:17:07.263Z,98634.06
2022-07-29T23:19:34.520Z,98631.31
2022-07-29T23:22:01.817Z,98631.03
2022-07-29T23:24:29.020Z,98633.94
2022-07-29T23:26:56.112Z,98633.75
2022-07-29T23:29:23.250Z,98631.44
2022-07-29T23:31:50.557Z,98628.06
2022-07-29T23:34:17.725Z,98630.81
2022-07-29T23:36:44.960Z,98628.44
2022-07-29T23:39:13.532Z,98632.63
2022-07-29T23:41:40.804Z,98624.69
2022-07-29T23:44:08.385Z,98629.38
2022-07-29T23:46:35.640Z,98627.91
2022-07-29T23:49:02.836Z,98627.91
2022-07-29T23:51:30.185Z,98620.56
2022-07-29T23:53:57.444Z,98617.56
2022-07-29T23:56:24.549Z,98615.97
2022-07-29T23:58:51.768Z,98614.69
